createdAt,value
2022-12-17T16:59:15.551Z,73.93
2022-12-17T17:00:15.213Z,74.07
2022-12-17T17:01:15.196Z,74.07
2022-12-17T17:02:15.177Z,73.82
2022-12-17T17:03:15.170Z,73.61
2022-12-17T17:04:15.177Z,73.47
2022-12-17T17:05:15.156Z,73.16
2022-12-17T17:06:15.185Z,72.64
2022-12-17T17:07:15.142Z,72.85
2022-12-17T17:08:15.121Z,72.53
2022-12-17T17:09:15.106Z,72.75
2022-12-17T17:10:15.098Z,72.85
2022-12-17T17:11:15.094Z,72.53
2022-12-17T17:12:15.104Z,72.78
2022-12-17T17:13:15.091Z,73.09
2022-12-17T17:14:29.597Z,73.61
2022-12-17T17:15:15.085Z,73.47
2022-12-17T17:16:15.050Z,73.47
2022-12-17T17:17:15.054Z,73.27
2022-12-17T17:18:15.078Z,72.96
2022-12-17T17:19:15.007Z,73.06
2022-12-17T17:20:14.997Z,72.85
2022-12-17T17:21:14.990Z,73.06
2022-12-17T17:22:14.977Z,72.75
2022-12-17T17:23:14.968Z,72.85
2022-12-17T17:24:14.981Z,72.67
2022-12-17T17:25:14.954Z,73.16
2022-12-17T17:26:14.932Z,72.67
2022-12-17T17:27:14.973Z,73.09
2022-12-17T17:28:14.917Z,73.19
2022-12-17T17:29:14.927Z,73.3
2022-12-17T17:30:14.915Z,73.41
2022-12-17T17:31:15.459Z,73.51
2022-12-17T17:32:14.877Z,73.37
2022-12-17T17:33:14.865Z,73.19
2022-12-17T17:34:14.863Z,73.19
2022-12-17T17:35:14.843Z,73.09
2022-12-17T17:36:14.855Z,73.09
2022-12-17T17:37:14.836Z,73.09
2022-12-17T17:38:14.815Z,73.3
2022-12-17T17:39:14.803Z,73.06
2022-12-17T17:40:14.814Z,73.23
2022-12-17T17:41:14.786Z,73.72
2022-12-17T17:42:14.871Z,73.41
2022-12-17T17:43:14.765Z,73.72
2022-12-17T17:44:14.756Z,73.3
2022-12-17T17:45:14.748Z,73.19
2022-12-17T17:46:14.733Z,73.51
2022-12-17T17:47:14.727Z,73.3
2022-12-17T17:48:14.712Z,73.72
2022-12-17T17:49:14.702Z,72.88
2022-12-17T17:50:14.710Z,73.82
2022-12-17T17:51:14.682Z,73.19
2022-12-17T17:52:14.959Z,73.41
2022-12-17T17:53:14.656Z,73.3
2022-12-17T17:54:14.665Z,73.16
2022-12-17T17:55:14.655Z,72.88
2022-12-17T17:56:14.642Z,72.99
2022-12-17T17:57:14.624Z,72.75
2022-12-17T17:58:14.610Z,72.85
2022-12-17T17:59:14.599Z,72.78
2022-12-17T18:00:14.597Z,73.19
2022-12-17T18:01:14.596Z,72.88
2022-12-17T18:02:14.568Z,72.96
2022-12-17T18:03:14.571Z,72.47
2022-12-17T18:04:14.556Z,73.09
2022-12-17T18:05:14.541Z,72.75
2022-12-17T18:06:14.533Z,72.53
2022-12-17T18:07:14.522Z,72.85
2022-12-17T18:08:14.511Z,72.53
2022-12-17T18:09:14.512Z,72.33
2022-12-17T18:10:14.497Z,72.53
2022-12-17T18:11:14.481Z,72.22
2022-12-17T18:12:14.476Z,71.91
2022-12-17T18:13:14.468Z,72.22
2022-12-17T18:14:14.460Z,72.22
2022-12-17T18:15:14.467Z,72.22
2022-12-17T18:16:14.427Z,72.02
2022-12-17T18:17:14.436Z,71.8
2022-12-17T18:18:14.495Z,72.33
2022-12-17T18:19:14.404Z,71.91
2022-12-17T18:20:14.406Z,72.33
2022-12-17T18:21:14.387Z,72.47
2022-12-17T18:22:14.878Z,72.71
2022-12-17T18:23:14.594Z,72.67
2022-12-17T18:24:14.353Z,72.81
2022-12-17T18:25:14.361Z,73.02
2022-12-17T18:26:14.341Z,73.33
2022-12-17T18:27:14.320Z,73.13
2022-12-17T18:28:14.347Z,73.44
2022-12-17T18:29:14.299Z,73.26
2022-12-17T18:30:14.293Z,73.99
2022-12-17T18:31:14.298Z,74.45
2022-12-17T18:32:14.265Z,74.31
2022-12-17T18:33:14.271Z,74.52
2022-12-17T18:34:14.249Z,74.24
2022-12-17T18:35:14.237Z,74.41
2022-12-17T18:36:14.224Z,74.17
2022-12-17T18:37:14.230Z,73.58
2022-12-17T18:38:14.278Z,73.89
2022-12-17T18:39:14.202Z,73.79
2022-12-17T18:40:14.188Z,74.21
2022-12-17T18:41:14.176Z,74.21
2022-12-17T18:42:14.163Z,73.99
2022-12-17T18:43:14.185Z,73.99
2022-12-17T18:44:14.185Z,74.24
2022-12-17T18:45:14.167Z,74.52
2022-12-17T18:46:14.162Z,74.1
2022-12-17T18:47:14.119Z,74.03
2022-12-17T18:48:14.106Z,74.03
2022-12-17T18:49:14.094Z,74.45
2022-12-17T18:50:14.083Z,74.45
2022-12-17T18:51:14.093Z,74.1
2022-12-17T18:52:14.066Z,74.13
2022-12-17T18:53:14.245Z,74.13
2022-12-17T18:54:14.048Z,74.31
2022-12-17T18:55:14.046Z,74.1
2022-12-17T18:56:14.022Z,73.99
2022-12-17T18:57:14.014Z,73.79
2022-12-17T18:58:14.007Z,73.93
2022-12-17T18:59:13.997Z,74.03
2022-12-17T19:00:13.999Z,73.82
2022-12-17T19:01:13.977Z,73.89
2022-12-17T19:02:13.971Z,73.68
2022-12-17T19:03:13.983Z,73.5
2022-12-17T19:04:13.944Z,73.61
2022-12-17T19:05:13.935Z,73.82
2022-12-17T19:06:13.924Z,73.72
2022-12-17T19:07:13.938Z,73.72
2022-12-17T19:08:13.910Z,74.03
2022-12-17T19:09:13.891Z,74.13
2022-12-17T19:10:13.883Z,74.06
2022-12-17T19:11:13.883Z,74.69
2022-12-17T19:12:13.878Z,74.48
2022-12-17T19:13:13.870Z,74.62
2022-12-17T19:14:13.843Z,74.83
2022-12-17T19:15:13.836Z,75.25
2022-12-17T19:16:13.834Z,75.32
2022-12-17T19:17:13.811Z,75.01
2022-12-17T19:18:13.800Z,74.69
2022-12-17T19:19:14.068Z,74.58
2022-12-17T19:20:13.783Z,74.8
2022-12-17T19:21:13.769Z,74.58
2022-12-17T19:22:13.765Z,74.38
2022-12-17T19:23:13.777Z,74.41
2022-12-17T19:24:13.742Z,74.52
2022-12-17T19:25:13.731Z,74.62
2022-12-17T19:26:13.732Z,74.93
2022-12-17T19:27:13.706Z,75.04
2022-12-17T19:28:13.762Z,74.9
2022-12-17T19:29:13.688Z,74.48
2022-12-17T19:30:13.890Z,74.38
2022-12-17T19:31:13.673Z,74.38
2022-12-17T19:32:13.661Z,74.27
2022-12-17T19:33:13.693Z,73.93
2022-12-17T19:34:13.643Z,73.85
2022-12-17T19:35:13.646Z,73.61
2022-12-17T19:36:13.633Z,73.5
2022-12-17T19:37:13.605Z,73.3
2022-12-17T19:38:13.606Z,72.98
2022-12-17T19:39:13.589Z,72.91
2022-12-17T19:40:13.594Z,73.44
2022-12-17T19:41:13.564Z,73.85
2022-12-17T19:42:13.558Z,73.33
2022-12-17T19:43:13.774Z,73.44
2022-12-17T19:44:13.541Z,73.65
2022-12-17T19:45:13.535Z,73.75
2022-12-17T19:46:13.517Z,73.75
2022-12-17T19:47:13.503Z,73.68
2022-12-17T19:48:13.505Z,73.79
2022-12-17T19:49:13.500Z,74.1
2022-12-17T19:50:13.475Z,73.99
2022-12-17T19:51:13.470Z,74.2
2022-12-17T19:52:13.452Z,74.3
2022-12-17T19:53:13.468Z,74.41
2022-12-17T19:54:13.433Z,74.41
2022-12-17T19:55:13.420Z,74.06
2022-12-17T19:56:13.415Z,73.85
2022-12-17T19:57:13.421Z,73.54
2022-12-17T19:58:13.584Z,73.33
2022-12-17T19:59:13.391Z,73.02
2022-12-17T20:00:13.373Z,73.22
2022-12-17T20:01:13.360Z,73.36
2022-12-17T20:02:13.353Z,73.57
2022-12-17T20:03:13.341Z,73.47
2022-12-17T20:04:13.353Z,73.79
2022-12-17T20:05:13.340Z,73.89
2022-12-17T20:06:13.312Z,73.99
2022-12-17T20:07:13.301Z,73.71
2022-12-17T20:08:13.294Z,74.13
2022-12-17T20:09:13.590Z,74.34
2022-12-17T20:10:13.269Z,74.55
2022-12-17T20:11:13.258Z,74.76
2022-12-17T20:12:13.248Z,74.65
2022-12-17T20:13:13.239Z,74.65
2022-12-17T20:14:13.231Z,74.65
2022-12-17T20:15:13.216Z,74.76
2022-12-17T20:16:13.210Z,74.24
2022-12-17T20:17:13.222Z,74.13
2022-12-17T20:18:13.204Z,74.44
2022-12-17T20:19:13.175Z,74.13
2022-12-17T20:20:13.180Z,74.44
2022-12-17T20:21:13.153Z,73.71
2022-12-17T20:22:13.147Z,74.13
2022-12-17T20:23:13.368Z,73.92
2022-12-17T20:24:13.136Z,73.92
2022-12-17T20:25:13.129Z,74.13
2022-12-17T20:26:13.104Z,74.24
2022-12-17T20:27:13.096Z,74.13
2022-12-17T20:28:13.534Z,74.13
2022-12-17T20:29:13.078Z,74.37
2022-12-17T20:30:13.086Z,74.58
2022-12-17T20:31:13.056Z,74.44
2022-12-17T20:32:13.043Z,74.27
2022-12-17T20:33:13.028Z,74.58
2022-12-17T20:34:13.238Z,74.48
2022-12-17T20:35:13.016Z,74.55
2022-12-17T20:36:13.013Z,74.34
2022-12-17T20:37:12.997Z,74.27
2022-12-17T20:38:13.020Z,74.27
2022-12-17T20:39:12.973Z,74.48
2022-12-17T20:40:12.968Z,74.48
2022-12-17T20:41:12.963Z,74.48
2022-12-17T20:42:12.955Z,74.79
2022-12-17T20:43:12.936Z,74.79
2022-12-17T20:44:13.052Z,74.69
2022-12-17T20:45:12.939Z,74.48
2022-12-17T20:46:12.917Z,74.48
2022-12-17T20:47:12.888Z,74.48
2022-12-17T20:48:12.879Z,74.24
2022-12-17T20:49:12.874Z,74.06
2022-12-17T20:50:12.856Z,74.06
2022-12-17T20:51:12.854Z,74.02
2022-12-17T20:52:12.843Z,73.74
2022-12-17T20:53:12.839Z,74.27
2022-12-17T20:54:12.830Z,74.06
2022-12-17T20:55:12.808Z,73.96
2022-12-17T20:56:12.798Z,73.82
2022-12-17T20:57:12.788Z,73.5
2022-12-17T20:58:12.774Z,73.5
2022-12-17T20:59:12.802Z,73.33
2022-12-17T21:00:12.784Z,73.71
2022-12-17T21:01:12.756Z,73.61
2022-12-17T21:02:12.742Z,73.71
2022-12-17T21:03:12.724Z,73.19
2022-12-17T21:04:12.736Z,73.39
2022-12-17T21:05:12.725Z,73.33
2022-12-17T21:06:12.718Z,73.61
2022-12-17T21:07:12.699Z,73.39
2022-12-17T21:08:12.675Z,73.29
2022-12-17T21:09:12.668Z,73.08
2022-12-17T21:10:12.657Z,73.22
2022-12-17T21:11:12.649Z,73.5
2022-12-17T21:12:12.630Z,73.29
2022-12-17T21:13:12.627Z,73.01
2022-12-17T21:14:12.639Z,73.33
2022-12-17T21:15:12.603Z,73.43
2022-12-17T21:16:12.594Z,73.11
2022-12-17T21:17:12.580Z,73.43
2022-12-17T21:18:12.602Z,73.33
2022-12-17T21:19:12.594Z,73.22
2022-12-17T21:20:12.568Z,73.04
2022-12-17T21:21:12.542Z,73.43
2022-12-17T21:22:12.546Z,73.22
2022-12-17T21:23:12.527Z,73.11
2022-12-17T21:24:12.514Z,73.01
2022-12-17T21:25:13.006Z,73.11
2022-12-17T21:26:12.492Z,73.15
2022-12-17T21:27:12.481Z,73.68
2022-12-17T21:28:12.475Z,73.46
2022-12-17T21:29:12.467Z,73.25
2022-12-17T21:30:12.518Z,73.22
2022-12-17T21:31:12.448Z,73.11
2022-12-17T21:32:12.432Z,72.94
2022-12-17T21:33:12.426Z,73.04
2022-12-17T21:34:12.430Z,73.15
2022-12-17T21:35:12.398Z,73.25
2022-12-17T21:36:12.419Z,73.36
2022-12-17T21:37:12.395Z,73.04
2022-12-17T21:38:12.368Z,73.25
2022-12-17T21:39:12.364Z,72.94
2022-12-17T21:40:12.350Z,72.83
2022-12-17T21:41:12.335Z,72.94
2022-12-17T21:42:12.345Z,72.8
2022-12-17T21:43:12.319Z,72.49
2022-12-17T21:44:12.314Z,72.49
2022-12-17T21:45:12.309Z,72.28
2022-12-17T21:46:12.284Z,72.38
2022-12-17T21:47:12.297Z,72.41
2022-12-17T21:48:12.267Z,72.83
2022-12-17T21:49:12.334Z,72.73
2022-12-17T21:50:12.269Z,72.69
2022-12-17T21:51:12.259Z,72.31
2022-12-17T21:52:12.228Z,72.52
2022-12-17T21:53:12.217Z,72.63
2022-12-17T21:54:12.250Z,72.52
2022-12-17T21:55:12.195Z,72.73
2022-12-17T21:56:12.186Z,72.73
2022-12-17T21:57:12.177Z,72.38
2022-12-17T21:58:12.170Z,71.99
2022-12-17T21:59:12.151Z,72.41
2022-12-17T22:00:12.214Z,72.52
2022-12-17T22:01:12.136Z,72.63
2022-12-17T22:02:12.127Z,72.63
2022-12-17T22:03:12.113Z,72.2
2022-12-17T22:04:12.115Z,72.24
2022-12-17T22:05:12.129Z,72.55
2022-12-17T22:06:12.082Z,72.66
2022-12-17T22:07:12.076Z,72.45
2022-12-17T22:08:12.066Z,72.66
2022-12-17T22:09:12.061Z,72.76
2022-12-17T22:10:12.190Z,72.66
2022-12-17T22:11:12.040Z,72.66
2022-12-17T22:12:12.027Z,72.66
2022-12-17T22:13:12.016Z,72.9
2022-12-17T22:14:12.010Z,73.32
2022-12-17T22:15:11.991Z,73.5
2022-12-17T22:16:11.987Z,73.11
2022-12-17T22:17:11.982Z,73.32
2022-12-17T22:18:11.970Z,73.32
2022-12-17T22:19:11.954Z,73.63
2022-12-17T22:20:11.943Z,73.6
2022-12-17T22:21:11.930Z,73.11
2022-12-17T22:22:11.931Z,73.18
2022-12-17T22:23:11.912Z,72.9
2022-12-17T22:24:11.899Z,73
2022-12-17T22:25:11.930Z,73.22
2022-12-17T22:26:11.895Z,73.22
2022-12-17T22:27:11.867Z,73.08
2022-12-17T22:28:11.857Z,72.66
2022-12-17T22:29:11.853Z,72.55
2022-12-17T22:30:11.877Z,72.34
2022-12-17T22:31:11.829Z,72.45
2022-12-17T22:32:11.822Z,72.24
2022-12-17T22:33:11.835Z,72.55
2022-12-17T22:34:11.801Z,72.34
2022-12-17T22:35:11.791Z,71.92
2022-12-17T22:36:11.777Z,71.81
2022-12-17T22:37:11.775Z,71.89
2022-12-17T22:38:11.764Z,71.58
2022-12-17T22:39:11.745Z,71.36
2022-12-17T22:40:11.746Z,71.4
2022-12-17T22:41:11.755Z,71.61
2022-12-17T22:42:11.725Z,71.81
2022-12-17T22:43:11.711Z,71.71
2022-12-17T22:44:11.698Z,71.85
2022-12-17T22:45:11.739Z,72.27
2022-12-17T22:46:11.689Z,72.38
2022-12-17T22:47:11.674Z,72.06
2022-12-17T22:48:11.663Z,72.06
2022-12-17T22:49:11.648Z,72.16
2022-12-17T22:50:11.654Z,71.95
2022-12-17T22:51:11.633Z,72.27
2022-12-17T22:52:11.626Z,71.78
2022-12-17T22:53:11.609Z,72.3
2022-12-17T22:54:11.605Z,72.41
2022-12-17T22:55:11.650Z,72.3
2022-12-17T22:56:11.587Z,72.51
2022-12-17T22:57:11.570Z,72.72
2022-12-17T22:58:11.562Z,72.72
2022-12-17T22:59:11.555Z,72.2
2022-12-17T23:00:11.560Z,72.09
2022-12-17T23:01:11.579Z,72.3
2022-12-17T23:02:11.532Z,72.2
2022-12-17T23:03:11.508Z,72.41
2022-12-17T23:04:11.526Z,72.62
2022-12-17T23:05:11.490Z,72.62
2022-12-17T23:06:11.490Z,72.75
2022-12-17T23:07:11.501Z,73.14
2022-12-17T23:08:11.458Z,72.93
2022-12-17T23:09:11.450Z,72.72
2022-12-17T23:10:11.442Z,72.83
2022-12-17T23:11:11.462Z,72.48
2022-12-17T23:12:11.444Z,72.3
2022-12-17T23:13:23.064Z,72.48
2022-12-17T23:14:11.399Z,72.16
2022-12-17T23:15:11.393Z,72.06
2022-12-17T23:16:11.381Z,72.06
2022-12-17T23:17:11.380Z,71.95
2022-12-17T23:18:11.372Z,71.85
2022-12-17T23:19:11.351Z,71.75
2022-12-17T23:20:11.344Z,71.85
2022-12-17T23:21:11.331Z,72.06
2022-12-17T23:22:11.325Z,72.09
2022-12-17T23:23:11.313Z,72.3
2022-12-17T23:24:11.300Z,72.51
2022-12-17T23:25:11.289Z,72.72
2022-12-17T23:26:11.291Z,72.41
2022-12-17T23:27:11.275Z,72.51
2022-12-17T23:28:11.274Z,72.93
2022-12-17T23:29:11.247Z,72.62
2022-12-17T23:30:11.246Z,72.62
2022-12-17T23:31:11.245Z,72.58
2022-12-17T23:32:11.219Z,72.27
2022-12-17T23:33:11.212Z,72.38
2022-12-17T23:34:11.214Z,72.2
2022-12-17T23:35:11.187Z,72.62
2022-12-17T23:36:11.188Z,72.51
2022-12-17T23:37:11.191Z,72.48
2022-12-17T23:38:11.159Z,72.41
2022-12-17T23:39:11.152Z,72.72
2022-12-17T23:40:11.151Z,72.93
2022-12-17T23:41:11.134Z,72.62
2022-12-17T23:42:11.120Z,72.62
2022-12-17T23:43:11.128Z,72.9
2022-12-17T23:44:11.105Z,72.41
2022-12-17T23:45:11.089Z,72.48
2022-12-17T23:46:11.085Z,72.2
2022-12-17T23:47:11.071Z,72.16
2022-12-17T23:48:11.077Z,71.98
2022-12-17T23:49:11.063Z,72.16
2022-12-17T23:50:11.042Z,71.85
2022-12-17T23:51:11.035Z,71.85
2022-12-17T23:52:11.022Z,71.75
2022-12-17T23:53:11.014Z,71.43
2022-12-17T23:54:11.004Z,71.22
2022-12-17T23:55:10.993Z,71.33
2022-12-17T23:56:11.003Z,71.64
2022-12-17T23:57:10.977Z,71.43
2022-12-17T23:58:10.966Z,71.53
2022-12-17T23:59:10.959Z,71.56
